Time;durP1;ratioP1;P1;durP2;ratioP2;P2;SDS_P1;SDS_P2;PMS_P1;PMS_P2;Temp;Humidity;BMP_temperature;BMP_pressure;BME280_temperature;BME280_humidity;BME280_pressure;Samples;Min_cycle;Max_cycle;Signal;HPM_P1;HPM_P2
2022/09/11 00:01:06;;;;;;;6.62;4.80;;;;;;;12.33;99.62;98928.84;1788033;80;22007;-77
2022/09/11 00:03:32;;;;;;;11.78;5.00;;;;;;;12.36;99.61;98923.88;1788028;80;21105;-77
2022/09/11 00:06:07;;;;;;;9.83;5.08;;;;;;;12.36;99.71;98917.29;1788012;80;21026;-77
2022/09/11 00:08:34;;;;;;;9.95;5.83;;;;;;;12.37;99.78;98918.97;1788130;80;22023;-77
2022/09/11 00:11:13;;;;;;;11.25;5.28;;;;;;;12.36;99.83;98918.13;1788149;80;21069;-77
2022/09/11 00:13:39;;;;;;;11.97;5.30;;;;;;;12.36;99.84;98912.02;1788111;80;21474;-77
2022/09/11 00:16:09;;;;;;;11.18;5.15;;;;;;;12.37;99.88;98911.94;1788581;80;21097;-77
2022/09/11 00:18:36;;;;;;;10.90;5.47;;;;;;;12.36;99.96;98909.38;1781646;80;21070;-77
2022/09/11 00:21:02;;;;;;;9.78;5.05;;;;;;;12.36;100.00;98910.22;1787979;80;21182;-77
2022/09/11 00:23:29;;;;;;;9.78;4.92;;;;;;;12.36;100.00;98906.27;1787916;80;21512;-77
2022/09/11 00:26:00;;;;;;;10.00;5.50;;;;;;;12.37;100.00;98899.19;1788201;80;21003;-77
2022/09/11 00:28:27;;;;;;;11.28;5.10;;;;;;;12.37;100.00;98892.59;1788397;80;21133;-77
2022/09/11 00:31:11;;;;;;;10.58;5.42;;;;;;;12.37;100.00;98892.59;1788132;80;21061;-78
2022/09/11 00:33:38;;;;;;;13.03;5.12;;;;;;;12.37;100.00;98886.00;1787953;80;21590;-77
2022/09/11 00:36:20;;;;;;;10.55;4.87;;;;;;;12.39;100.00;98888.08;1787970;80;21549;-77
2022/09/11 00:38:47;;;;;;;9.10;5.20;;;;;;;12.39;100.00;98884.12;1788301;80;21042;-77
2022/09/11 00:41:16;;;;;;;9.70;5.25;;;;;;;12.38;100.00;98876.69;1787864;80;21025;-78
2022/09/11 00:44:06;;;;;;;6.62;5.00;;;;;;;12.39;100.00;98888.08;1788454;80;21081;-77
2022/09/11 00:46:56;;;;;;;14.53;5.28;;;;;;;12.39;100.00;98888.08;1788308;80;21032;-77
2022/09/11 00:49:38;;;;;;;6.33;5.20;;;;;;;12.41;100.00;98882.28;1787051;80;21022;-78
2022/09/11 00:52:26;;;;;;;7.20;4.92;;;;;;;12.41;100.00;98886.25;1761323;80;21053;-77
2022/09/11 00:55:13;;;;;;;7.70;4.72;;;;;;;12.40;100.00;98875.30;1788207;80;21082;-77
2022/09/11 00:57:45;;;;;;;9.68;4.60;;;;;;;12.40;100.00;98882.73;1787964;80;21077;-76
2022/09/11 01:00:12;;;;;;;8.33;4.75;;;;;;;12.41;100.00;98878.33;1786682;80;21121;-75
2022/09/11 01:02:41;;;;;;;10.63;4.78;;;;;;;12.40;100.00;98881.41;1787890;80;21050;-78
2022/09/11 01:05:08;;;;;;;7.33;4.78;;;;;;;12.40;100.00;98872.18;1788515;80;21458;-76
2022/09/11 01:07:35;;;;;;;8.73;4.42;;;;;;;12.41;100.00;98875.69;1787964;80;21034;-77
2022/09/11 01:10:04;;;;;;;4.90;4.42;;;;;;;12.44;100.00;98878.17;1788436;80;20928;-78
2022/09/11 01:12:48;;;;;;;6.67;4.78;;;;;;;12.44;100.00;98874.22;1793778;80;21268;-77
2022/09/11 01:15:42;;;;;;;6.42;4.53;;;;;;;12.46;100.00;98868.39;1793574;80;20987;-76
2022/09/11 01:18:35;;;;;;;5.42;4.90;;;;;;;12.49;100.00;98872.63;1793922;80;22066;-77
2022/09/11 01:21:13;;;;;;;15.88;5.00;;;;;;;12.51;100.00;98870.31;1784380;80;21124;-77
2022/09/11 01:24:33;;;;;;;5.95;5.03;;;;;;;12.52;100.00;98877.27;1782482;80;20962;-77
2022/09/11 01:27:29;;;;;;;7.28;4.78;;;;;;;12.52;100.00;98865.41;1794176;80;21108;-77
2022/09/11 01:30:02;;;;;;;9.35;4.70;;;;;;;12.53;100.00;98867.12;1793778;80;20994;-78
2022/09/11 01:32:58;;;;;;;8.50;4.87;;;;;;;12.55;100.00;98862.61;1794045;80;21065;-77
2022/09/11 01:35:28;;;;;;;;;;;;;;;12.55;100.00;98867.88;1796582;80;21182;-78
2022/09/11 01:38:00;;;;;;;6.70;4.60;;;;;;;12.56;100.00;98870.92;1773871;80;20188;-78
2022/09/11 01:40:58;;;;;;;7.55;5.30;;;;;;;12.57;100.00;98874.41;1773534;80;21625;-79
2022/09/11 01:43:29;;;;;;;6.78;4.53;;;;;;;12.58;100.00;98859.80;1773792;80;21074;-75
2022/09/11 01:46:01;;;;;;;6.35;4.60;;;;;;;12.59;100.00;98857.56;1773518;80;21090;-75
2022/09/11 01:48:37;;;;;;;7.20;5.00;;;;;;;12.59;100.00;98861.52;1773865;80;21063;-76
2022/09/11 01:51:04;;;;;;;5.08;4.58;;;;;;;12.60;100.00;98863.20;1761356;80;21062;-77
2022/09/11 01:53:36;;;;;;;5.05;4.55;;;;;;;12.63;100.00;98857.77;1748107;80;21107;-76
2022/09/11 01:56:12;;;;;;;6.42;4.28;;;;;;;12.68;100.00;98855.38;1773547;80;21649;-77
2022/09/11 01:58:38;;;;;;;6.25;4.35;;;;;;;12.70;100.00;98850.37;1749233;80;21114;-76
2022/09/11 02:01:19;;;;;;;5.28;3.85;;;;;;;12.72;100.00;98850.30;1773870;80;21004;-75
2022/09/11 02:04:01;;;;;;;4.70;4.20;;;;;;;12.74;100.00;98855.02;1782529;80;21050;-77
2022/09/11 02:06:32;;;;;;;8.80;4.00;;;;;;;12.77;100.00;98848.27;1782532;80;21179;-77
2022/09/11 02:09:02;;;;;;;5.08;4.42;;;;;;;12.80;100.00;98837.06;1782866;80;21094;-77
2022/09/11 02:11:35;;;;;;;5.05;4.12;;;;;;;12.82;100.00;98840.94;1775193;80;21043;-76
2022/09/11 02:14:27;;;;;;;4.47;4.10;;;;;;;12.82;100.00;98839.62;1776650;80;28158;-77
2022/09/11 02:17:18;;;;;;;7.42;3.98;;;;;;;12.84;100.00;98841.70;1776406;80;21226;-77
2022/09/11 02:19:44;;;;;;;5.08;4.03;;;;;;;12.85;100.00;98838.14;1776583;80;22024;-78
2022/09/11 02:22:13;;;;;;;6.17;4.05;;;;;;;12.89;100.00;98830.89;1776717;80;21114;-77
2022/09/11 02:24:40;;;;;;;4.20;3.80;;;;;;;12.90;100.00;98837.41;1776459;80;21053;-77
2022/09/11 02:27:11;;;;;;;3.70;3.40;;;;;;;12.93;100.00;98833.29;1776366;80;21050;-77
2022/09/11 02:29:38;;;;;;;3.92;3.62;;;;;;;12.96;100.00;98835.77;1776540;80;21046;-76
2022/09/11 02:32:05;;;;;;;4.12;3.15;;;;;;;12.99;100.00;98834.73;1776925;80;21109;-77
2022/09/11 02:34:34;;;;;;;5.33;3.67;;;;;;;13.00;100.00;98833.33;1776557;80;21660;-77
2022/09/11 02:37:20;;;;;;;5.58;3.35;;;;;;;13.07;100.00;98839.59;1771555;80;21000;-77
2022/09/11 02:40:21;;;;;;;5.10;3.55;;;;;;;13.08;100.00;98846.56;1776553;80;21122;-75
2022/09/11 02:43:08;;;;;;;12.00;3.95;;;;;;;13.10;100.00;98846.88;1776674;80;21613;-78
2022/09/11 02:46:28;;;;;;;4.70;4.30;;;;;;;13.13;100.00;98845.39;1776537;80;22557;-77
2022/09/11 02:49:27;;;;;;;7.28;3.75;;;;;;;13.19;100.00;98852.11;1776665;80;21067;-76
2022/09/11 02:52:06;;;;;;;3.67;3.30;;;;;;;13.24;100.00;98843.45;1776715;80;21051;-78
2022/09/11 02:54:57;;;;;;;4.33;3.20;;;;;;;13.27;100.00;98840.64;1776860;80;21008;-77
2022/09/11 02:57:35;;;;;;;5.72;3.33;;;;;;;13.31;100.00;98852.73;1776410;80;21026;-77
2022/09/11 03:00:05;;;;;;;3.52;3.22;;;;;;;13.33;100.00;98853.55;1776750;80;21184;-77
2022/09/11 03:02:36;;;;;;;5.05;3.25;;;;;;;13.36;100.00;98843.27;1776669;80;21023;-77
2022/09/11 03:05:04;;;;;;;6.17;3.83;;;;;;;13.40;100.00;98843.48;1776836;80;21498;-77
2022/09/11 03:07:32;;;;;;;4.08;3.47;;;;;;;13.43;100.00;98859.62;1776405;80;21063;-77
2022/09/11 03:09:59;;;;;;;4.00;3.70;;;;;;;13.46;100.00;98860.77;1776639;80;21044;-77
2022/09/11 03:12:27;;;;;;;6.45;3.30;;;;;;;13.50;100.00;98862.28;1776367;80;21047;-76
2022/09/11 03:14:54;;;;;;;5.65;3.35;;;;;;;13.54;100.00;98863.83;1776593;80;21043;-78
2022/09/11 03:17:24;;;;;;;3.22;3.02;;;;;;;13.58;100.00;98890.94;1776512;80;20988;-78
2022/09/11 03:19:50;;;;;;;2.62;2.40;;;;;;;13.52;100.00;98889.50;1776679;80;21416;-78
2022/09/11 03:22:17;;;;;;;1.70;1.60;;;;;;;13.41;100.00;98903.78;1776702;80;21632;-78
2022/09/11 03:24:44;;;;;;;2.58;1.40;;;;;;;13.26;100.00;98902.33;1776526;80;22434;-78
2022/09/11 03:27:11;;;;;;;0.95;0.95;;;;;;;13.12;100.00;98890.38;1776820;80;21569;-77
2022/09/11 03:29:38;;;;;;;2.25;1.00;;;;;;;13.03;100.00;98894.38;1776412;80;21042;-78
2022/09/11 03:32:04;;;;;;;1.40;1.30;;;;;;;12.93;100.00;98905.91;1776516;80;20976;-78
2022/09/11 03:34:32;;;;;;;1.55;1.30;;;;;;;12.85;100.00;98905.46;1776747;80;21644;-77
2022/09/11 03:36:59;;;;;;;3.05;2.05;;;;;;;12.77;100.00;98908.50;1776764;80;21890;-78
2022/09/11 03:39:26;;;;;;;2.05;1.70;;;;;;;12.70;100.00;98907.61;1776375;80;21107;-79
2022/09/11 03:41:53;;;;;;;3.52;3.10;;;;;;;12.62;100.00;98927.34;1776783;80;21023;-78
2022/09/11 03:44:20;;;;;;;1.70;1.60;;;;;;;12.52;100.00;98919.49;1776931;80;21102;-78
2022/09/11 03:46:47;;;;;;;2.33;2.10;;;;;;;12.38;100.00;98917.58;1776624;80;21052;-78
2022/09/11 03:49:14;;;;;;;8.38;2.02;;;;;;;12.25;100.00;98920.02;1776757;80;21227;-77
2022/09/11 03:51:41;;;;;;;2.10;1.42;;;;;;;12.14;100.00;98930.25;1776738;80;21091;-78
2022/09/11 03:54:07;;;;;;;7.45;1.47;;;;;;;12.05;100.00;98932.02;1776322;80;21185;-78
2022/09/11 03:56:36;;;;;;;1.50;1.40;;;;;;;11.99;100.00;98930.55;1776418;80;21078;-78
2022/09/11 03:59:02;;;;;;;3.47;2.37;;;;;;;11.92;100.00;98924.33;1776406;80;21601;-77
2022/09/11 04:01:31;;;;;;;2.05;1.67;;;;;;;11.89;100.00;98926.63;1776468;80;21059;-75
2022/09/11 04:03:58;;;;;;;2.90;1.85;;;;;;;11.87;100.00;98928.50;1776724;80;21004;-75
2022/09/11 04:06:26;;;;;;;2.27;1.85;;;;;;;11.82;100.00;98930.03;1775943;80;21467;-76
2022/09/11 04:08:53;;;;;;;3.67;2.00;;;;;;;11.82;100.00;98925.23;1777117;80;21517;-76
2022/09/11 04:11:21;;;;;;;3.83;1.98;;;;;;;11.79;100.00;98928.86;1776655;80;22237;-75
2022/09/11 04:13:50;;;;;;;1.50;1.40;;;;;;;11.76;100.00;98935.59;1776621;80;21569;-75
2022/09/11 04:16:18;;;;;;;1.57;1.40;;;;;;;11.74;100.00;98936.14;1776611;80;21055;-75
2022/09/11 04:18:47;;;;;;;1.50;1.40;;;;;;;11.73;100.00;98933.58;1776937;80;21093;-75
2022/09/11 04:21:16;;;;;;;3.72;1.70;;;;;;;11.73;100.00;98934.42;1776671;80;21569;-78
2022/09/11 04:23:44;;;;;;;2.75;2.35;;;;;;;11.74;100.00;98934.82;1776884;80;21025;-77
2022/09/11 04:26:18;;;;;;;2.90;2.10;;;;;;;11.74;100.00;98933.50;1776710;80;21250;-78
2022/09/11 04:28:47;;;;;;;4.58;3.37;;;;;;;11.74;100.00;98940.56;1776829;80;21087;-78
2022/09/11 04:31:14;;;;;;;2.35;2.22;;;;;;;11.77;100.00;98938.63;1776809;80;21125;-78
2022/09/11 04:33:42;;;;;;;3.62;3.33;;;;;;;11.82;100.00;98942.37;1776660;80;21026;-77
2022/09/11 04:36:12;;;;;;;5.08;2.20;;;;;;;11.82;100.00;98941.89;1776576;80;21109;-77
2022/09/11 04:38:40;;;;;;;2.35;2.05;;;;;;;11.80;100.00;98942.88;1776748;80;21298;-77
2022/09/11 04:41:08;;;;;;;4.12;2.20;;;;;;;11.79;100.00;98944.67;1743550;80;21584;-77
2022/09/11 04:43:38;;;;;;;1.60;1.50;;;;;;;11.80;100.00;98951.66;1776757;80;21019;-77
2022/09/11 04:46:15;;;;;;;1.85;1.75;;;;;;;11.80;100.00;98945.52;1776689;80;21082;-77
2022/09/11 04:48:46;;;;;;;4.78;1.82;;;;;;;11.79;100.00;98939.41;1776497;80;21149;-77
2022/09/11 04:51:22;;;;;;;2.20;1.60;;;;;;;11.77;100.00;98951.81;1776662;80;21142;-78
2022/09/11 04:53:50;;;;;;;1.45;1.35;;;;;;;11.76;100.00;98959.31;1776533;80;21043;-79
2022/09/11 04:56:17;;;;;;;3.20;1.12;;;;;;;11.75;100.00;98952.80;1746320;80;21090;-78
2022/09/11 04:58:48;;;;;;;2.37;1.10;;;;;;;11.74;100.00;98954.59;1776840;80;21004;-77
2022/09/11 05:01:15;;;;;;;1.22;1.22;;;;;;;11.76;100.00;98958.00;1771682;80;21004;-77
2022/09/11 05:03:44;;;;;;;0.93;0.93;;;;;;;11.75;100.00;98949.72;1776698;80;21546;-77
2022/09/11 05:06:15;;;;;;;4.37;1.10;;;;;;;11.74;100.00;98953.74;1776874;80;21752;-78
2022/09/11 05:08:47;;;;;;;1.45;1.10;;;;;;;11.69;100.00;98947.37;1776928;80;21090;-76
2022/09/11 05:11:15;;;;;;;1.55;0.93;;;;;;;11.67;100.00;98947.91;1776691;80;20984;-77
2022/09/11 05:13:42;;;;;;;4.67;1.00;;;;;;;11.64;100.00;98947.58;1776590;80;21008;-77
2022/09/11 05:16:11;;;;;;;1.40;1.00;;;;;;;11.61;100.00;98950.36;1776672;80;21642;-78
2022/09/11 05:18:38;;;;;;;1.17;1.07;;;;;;;11.61;100.00;98951.68;1776931;80;22377;-76
2022/09/11 05:21:11;;;;;;;2.10;2.00;;;;;;;11.61;100.00;98950.84;1776619;80;20984;-77
2022/09/11 05:23:38;;;;;;;1.40;1.30;;;;;;;11.59;100.00;98954.02;1776470;80;21578;-76
2022/09/11 05:26:08;;;;;;;2.62;2.10;;;;;;;11.57;100.00;98957.19;1776905;80;21083;-78
2022/09/11 05:28:36;;;;;;;2.00;1.90;;;;;;;11.58;100.00;98964.15;1771585;80;21248;-77
2022/09/11 05:31:11;;;;;;;3.02;1.80;;;;;;;11.59;100.00;98964.08;1776975;80;20980;-78
2022/09/11 05:33:39;;;;;;;1.85;1.57;;;;;;;11.62;100.00;98971.00;1776577;80;21162;-78
2022/09/11 05:36:06;;;;;;;1.37;0.95;;;;;;;11.62;100.00;98968.36;1776933;80;21590;-78
2022/09/11 05:38:34;;;;;;;1.52;1.40;;;;;;;11.61;100.00;98971.91;1776587;80;21079;-77
2022/09/11 05:41:01;;;;;;;1.50;0.95;;;;;;;11.59;100.00;98980.36;1776662;80;21210;-77
2022/09/11 05:43:28;;;;;;;0.72;0.72;;;;;;;11.53;100.00;98983.67;1746228;80;20992;-77
2022/09/11 05:45:56;;;;;;;0.65;0.65;;;;;;;11.50;100.00;98983.81;1776467;80;21040;-78
2022/09/11 05:48:32;;;;;;;3.25;1.10;;;;;;;11.48;100.00;98990.95;1746224;80;21626;-77
2022/09/11 05:51:02;;;;;;;1.00;0.95;;;;;;;11.46;100.00;98979.60;1776469;80;21079;-77
2022/09/11 05:53:34;;;;;;;3.08;1.27;;;;;;;11.45;100.00;98977.06;1776716;80;21107;-77
2022/09/11 05:56:16;;;;;;;1.65;1.40;;;;;;;11.43;100.00;98988.11;1775746;80;21134;-78
2022/09/11 05:58:45;;;;;;;1.35;1.27;;;;;;;11.42;100.00;98985.95;1746317;80;21118;-77
2022/09/11 06:01:17;;;;;;;1.82;1.07;;;;;;;11.41;100.00;98985.55;1776422;80;20953;-78
2022/09/11 06:03:48;;;;;;;1.17;1.07;;;;;;;11.41;100.00;98990.81;1777066;80;21119;-78
2022/09/11 06:06:13;;;;;;;1.17;1.07;;;;;;;11.40;100.00;98983.86;1776648;80;21963;-77
2022/09/11 06:08:46;;;;;;;1.00;1.00;;;;;;;11.39;100.00;98975.55;1776389;80;21091;-77
2022/09/11 06:11:14;;;;;;;1.05;1.00;;;;;;;11.41;100.00;98976.33;1776982;80;21075;-77
2022/09/11 06:13:42;;;;;;;1.45;0.93;;;;;;;11.44;100.00;98968.29;1776410;80;21142;-77
2022/09/11 06:16:20;;;;;;;2.05;0.85;;;;;;;11.48;100.00;98971.19;1776638;80;20988;-77
2022/09/11 06:18:50;;;;;;;1.00;0.95;;;;;;;11.49;100.00;98966.77;1776725;80;21146;-78
2022/09/11 06:21:19;;;;;;;1.55;1.17;;;;;;;11.51;100.00;98972.33;1776746;80;21036;-78
2022/09/11 06:23:49;;;;;;;0.90;0.90;;;;;;;11.56;100.00;98977.39;1775535;80;21075;-78
2022/09/11 06:26:18;;;;;;;14.05;6.37;;;;;;;11.61;100.00;98982.45;1776595;80;20984;-77
2022/09/11 06:28:46;;;;;;;6.45;5.08;;;;;;;11.69;100.00;98980.31;1776760;80;21032;-77
2022/09/11 06:31:15;;;;;;;1.50;1.40;;;;;;;11.79;100.00;98978.94;1776565;80;21845;-77
2022/09/11 06:33:42;;;;;;;1.45;0.93;;;;;;;11.89;99.28;98982.84;1777169;80;21170;-77
2022/09/11 06:36:18;;;;;;;0.93;0.93;;;;;;;11.94;98.37;98982.65;1776845;80;21057;-77
2022/09/11 06:38:45;;;;;;;1.67;0.90;;;;;;;11.95;97.55;98979.54;1776478;80;21471;-77
2022/09/11 06:41:15;;;;;;;1.82;1.67;;;;;;;11.96;96.70;98972.03;1776895;80;21075;-77
2022/09/11 06:43:42;;;;;;;1.30;1.15;;;;;;;11.98;96.66;98979.39;1776566;80;21207;-78
2022/09/11 06:46:12;;;;;;;1.05;1.00;;;;;;;12.03;96.73;98978.70;1777022;80;21688;-77
2022/09/11 06:48:39;;;;;;;1.67;1.02;;;;;;;12.07;96.24;98973.69;1776491;80;21043;-78
2022/09/11 06:51:10;;;;;;;2.50;1.20;;;;;;;12.14;95.57;98973.76;1777120;80;21538;-78
2022/09/11 06:53:37;;;;;;;0.90;0.88;;;;;;;12.18;95.37;98975.30;1776574;80;21063;-78
2022/09/11 06:56:06;;;;;;;2.17;1.32;;;;;;;12.22;94.64;98976.88;1776762;80;21102;-77
2022/09/11 06:58:34;;;;;;;1.00;1.00;;;;;;;12.23;94.20;98978.56;1776635;80;20980;-77
2022/09/11 07:01:06;;;;;;;5.37;0.90;;;;;;;12.29;93.99;98979.18;1776524;80;21000;-78
2022/09/11 07:03:33;;;;;;;0.80;0.80;;;;;;;12.35;93.72;98986.80;1776702;80;21569;-78
2022/09/11 07:06:01;;;;;;;2.27;0.90;;;;;;;12.37;94.06;98992.41;1776489;80;21410;-78
2022/09/11 07:08:28;;;;;;;1.10;1.10;;;;;;;12.39;93.43;98998.89;1776683;80;21537;-78
2022/09/11 07:11:03;;;;;;;1.02;0.93;;;;;;;12.39;93.14;99004.16;1776539;80;20984;-78
2022/09/11 07:13:31;;;;;;;1.00;0.90;;;;;;;12.40;92.20;99004.56;1777018;80;21549;-77
2022/09/11 07:16:01;;;;;;;1.32;1.10;;;;;;;12.40;91.99;99005.88;1776998;80;21142;-78
2022/09/11 07:18:34;;;;;;;1.07;1.05;;;;;;;12.38;91.56;99003.80;1776777;80;21005;-77
2022/09/11 07:21:12;;;;;;;0.95;0.90;;;;;;;12.37;91.65;99004.27;1746424;80;21097;-77
2022/09/11 07:23:39;;;;;;;1.37;1.15;;;;;;;12.38;91.60;99012.55;1776633;80;21059;-78
2022/09/11 07:26:09;;;;;;;1.00;0.90;;;;;;;12.37;91.53;99006.03;1776770;80;21008;-78
2022/09/11 07:28:41;;;;;;;0.85;0.85;;;;;;;12.36;92.28;99006.51;1776920;80;21471;-78
2022/09/11 07:31:13;;;;;;;2.87;2.67;;;;;;;12.39;92.52;99007.68;1776222;78;21071;-78
2022/09/11 07:33:44;;;;;;;2.20;2.00;;;;;;;12.40;92.48;99002.77;1776481;80;21309;-78
2022/09/11 07:36:13;;;;;;;4.08;1.90;;;;;;;12.43;92.33;99013.17;1776443;80;21055;-78
2022/09/11 07:38:45;;;;;;;3.00;2.80;;;;;;;12.45;92.08;99005.19;1776495;80;21161;-78
2022/09/11 07:41:13;;;;;;;13.25;6.30;;;;;;;12.44;92.15;99012.73;1776471;80;21059;-77
2022/09/11 07:43:41;;;;;;;1.17;1.17;;;;;;;12.48;92.29;99012.95;1776775;80;21940;-77
2022/09/11 07:46:08;;;;;;;5.22;3.37;;;;;;;12.45;91.16;99011.78;1776651;80;22340;-78
2022/09/11 07:48:37;;;;;;;1.57;1.47;;;;;;;12.41;91.30;99010.24;1776406;80;21043;-78
2022/09/11 07:51:06;;;;;;;1.77;1.67;;;;;;;12.36;90.37;99001.70;1776991;80;21064;-78
2022/09/11 07:53:36;;;;;;;1.57;1.47;;;;;;;12.34;90.48;98999.59;1776530;80;21586;-78
2022/09/11 07:56:05;;;;;;;1.70;1.60;;;;;;;12.35;91.00;99000.83;1777183;80;21086;-78
2022/09/11 07:58:37;;;;;;;5.05;4.10;;;;;;;12.36;91.30;99004.34;1776878;80;21354;-77
2022/09/11 08:01:10;;;;;;;2.50;2.30;;;;;;;12.42;91.69;99006.66;1776530;80;21079;-77
2022/09/11 08:03:37;;;;;;;1.50;1.42;;;;;;;12.49;90.62;99009.84;1776490;80;21000;-77
2022/09/11 08:06:09;;;;;;;1.65;1.55;;;;;;;12.49;90.08;99008.08;1776952;80;21090;-78
2022/09/11 08:08:37;;;;;;;6.33;4.97;;;;;;;12.50;89.59;99004.48;1776435;80;21660;-78
2022/09/11 08:11:07;;;;;;;2.10;2.00;;;;;;;12.51;89.72;99008.84;1776582;80;21233;-77
2022/09/11 08:13:35;;;;;;;3.67;2.90;;;;;;;12.53;89.26;99008.30;1746416;80;21020;-77
2022/09/11 08:16:02;;;;;;;3.20;2.90;;;;;;;12.50;89.42;99013.72;1776455;80;21016;-77
2022/09/11 08:18:29;;;;;;;2.12;2.02;;;;;;;12.51;89.42;99006.20;1777021;80;21859;-79
2022/09/11 08:21:08;;;;;;;2.20;2.10;;;;;;;12.55;88.97;98999.83;1776501;80;21637;-78
2022/09/11 08:23:36;;;;;;;1.87;1.77;;;;;;;12.59;88.93;99005.80;1776549;80;21210;-77
2022/09/11 08:26:12;;;;;;;2.17;2.08;;;;;;;12.63;88.69;98999.45;1776433;80;21142;-78
2022/09/11 08:28:41;;;;;;;2.22;2.12;;;;;;;12.65;88.92;98988.34;1776039;80;21087;-76
2022/09/11 08:31:08;;;;;;;2.00;1.90;;;;;;;12.69;89.49;98996.95;1776811;80;20997;-78
2022/09/11 08:33:35;;;;;;;2.90;2.70;;;;;;;12.73;89.38;98995.87;1776433;80;20996;-77
2022/09/11 08:36:05;;;;;;;4.45;2.10;;;;;;;12.78;89.25;98996.48;1776593;80;21554;-77
2022/09/11 08:38:33;;;;;;;2.20;2.00;;;;;;;12.83;88.62;98990.50;1776327;80;21688;-77
2022/09/11 08:41:32;;;;;;;2.00;1.90;;;;;;;12.85;88.69;98989.94;1776805;80;21905;-77
2022/09/11 08:44:17;;;;;;;5.80;2.40;;;;;;;12.90;88.46;98991.03;1776461;80;21004;-77
2022/09/11 08:46:48;;;;;;;2.17;2.03;;;;;;;12.91;88.42;98980.84;1776839;80;21044;-76
2022/09/11 08:49:34;;;;;;;1.90;1.80;;;;;;;12.96;88.51;98990.24;1776866;80;21877;-77
2022/09/11 08:52:03;;;;;;;1.87;1.77;;;;;;;13.04;87.84;98995.58;1776589;80;21039;-76
2022/09/11 08:54:35;;;;;;;1.80;1.70;;;;;;;13.06;87.57;98996.34;1776450;80;21063;-77
2022/09/11 08:58:01;;;;;;;1.90;1.80;;;;;;;13.08;87.85;99003.27;1776619;80;21543;-77
2022/09/11 09:00:34;;;;;;;1.70;1.60;;;;;;;13.01;87.60;99005.38;1776979;80;20986;-77
2022/09/11 09:03:11;;;;;;;1.87;1.77;;;;;;;12.94;87.25;99001.33;1776471;80;23514;-77
2022/09/11 09:06:10;;;;;;;3.45;2.40;;;;;;;12.92;87.36;98997.92;1776601;80;20969;-76
2022/09/11 09:09:27;;;;;;;4.47;2.12;;;;;;;12.92;87.67;98995.28;1787772;80;21061;-77
2022/09/11 09:12:35;;;;;;;2.55;2.30;;;;;;;12.91;87.65;98996.23;1788223;80;20991;-79
2022/09/11 09:15:29;;;;;;;3.00;2.75;;;;;;;12.94;87.93;99005.28;1787865;80;21548;-77
2022/09/11 09:18:01;;;;;;;3.62;2.55;;;;;;;13.01;87.88;99008.45;1787981;80;21223;-77
2022/09/11 09:20:37;;;;;;;3.20;3.00;;;;;;;13.08;87.68;99006.34;1787881;80;21026;-77
2022/09/11 09:23:18;;;;;;;2.33;2.22;;;;;;;13.10;87.60;99001.86;1788581;80;21042;-78
2022/09/11 09:25:45;;;;;;;2.30;2.10;;;;;;;13.16;87.69;99000.20;1787710;80;21109;-78
2022/09/11 09:28:23;;;;;;;2.00;1.90;;;;;;;13.24;87.67;99003.28;1787919;80;21073;-78
2022/09/11 09:30:57;;;;;;;2.83;2.35;;;;;;;13.30;88.04;99002.12;1787486;80;21561;-78
2022/09/11 09:33:36;;;;;;;2.75;2.37;;;;;;;13.36;87.94;98998.70;1788202;80;21096;-79
2022/09/11 09:36:31;;;;;;;2.70;2.50;;;;;;;13.44;87.81;98998.75;1787944;80;20987;-80
2022/09/11 09:38:58;;;;;;;3.58;2.50;;;;;;;13.49;87.08;98996.70;1788117;80;21046;-78
2022/09/11 09:41:53;;;;;;;2.98;2.70;;;;;;;13.50;86.52;99001.03;1787889;80;21069;-78
2022/09/11 09:44:51;;;;;;;3.72;3.30;;;;;;;13.54;86.56;99002.11;1788393;80;21552;-79
2022/09/11 09:47:18;;;;;;;3.20;2.75;;;;;;;13.55;85.86;98994.58;1788036;80;21085;-79
2022/09/11 09:49:45;;;;;;;4.03;2.70;;;;;;;13.61;85.87;98998.66;1788055;80;21034;-78
2022/09/11 09:52:23;;;;;;;5.10;2.95;;;;;;;13.67;85.73;98996.17;1788078;80;21038;-79
2022/09/11 09:55:03;;;;;;;3.85;3.55;;;;;;;13.74;85.34;98998.84;1788321;80;21018;-78
2022/09/11 09:57:38;;;;;;;4.05;3.75;;;;;;;13.81;85.21;98997.55;1787760;80;21592;-78
2022/09/11 10:00:16;;;;;;;4.10;3.70;;;;;;;13.89;85.02;98995.33;1788314;80;21008;-78
2022/09/11 10:02:56;;;;;;;5.28;4.60;;;;;;;13.98;84.53;98990.46;1787790;80;21047;-79
2022/09/11 10:05:31;;;;;;;4.60;4.20;;;;;;;14.04;84.33;98985.67;1787885;80;21509;-79
2022/09/11 10:08:01;;;;;;;4.40;4.10;;;;;;;14.10;83.84;98987.98;1788103;80;22027;-78
2022/09/11 10:10:37;;;;;;;5.12;4.28;;;;;;;14.19;83.55;98988.36;1788357;80;21526;-78
2022/09/11 10:13:23;;;;;;;5.87;5.03;;;;;;;14.26;82.81;98983.95;1788585;80;21050;-79
2022/09/11 10:15:48;;;;;;;5.62;4.85;;;;;;;14.31;81.91;98985.02;1793455;80;21015;-77
2022/09/11 10:18:38;;;;;;;6.85;5.25;;;;;;;14.33;81.52;98983.12;1794012;80;21568;-77
2022/09/11 10:21:16;;;;;;;3.55;3.35;;;;;;;14.37;81.27;98985.96;1793825;80;21041;-78
2022/09/11 10:24:00;;;;;;;6.35;4.15;;;;;;;14.34;79.26;98979.55;1793980;80;21089;-77
2022/09/11 10:26:34;;;;;;;4.40;4.05;;;;;;;14.27;79.89;98977.73;1793945;80;21105;-78
2022/09/11 10:29:19;;;;;;;4.25;3.87;;;;;;;14.24;80.29;98981.00;1793876;80;21101;-77
2022/09/11 10:32:03;;;;;;;3.77;3.47;;;;;;;14.21;79.20;98986.50;1793613;80;21498;-78
2022/09/11 10:34:39;;;;;;;3.80;3.60;;;;;;;14.19;79.82;98983.94;1793872;80;21057;-78
2022/09/11 10:37:14;;;;;;;3.52;3.33;;;;;;;14.25;79.85;98984.05;1793883;80;21059;-79
2022/09/11 10:39:43;;;;;;;3.90;3.65;;;;;;;14.31;79.74;98983.70;1793728;80;21632;-78
2022/09/11 10:42:16;;;;;;;3.83;3.52;;;;;;;14.36;80.20;98992.70;1793986;80;21587;-77
2022/09/11 10:44:44;;;;;;;3.50;3.30;;;;;;;14.39;80.02;98989.84;1765114;80;21065;-76
2022/09/11 10:47:21;;;;;;;3.60;3.40;;;;;;;14.38;78.86;98986.36;1793667;80;21556;-78
2022/09/11 10:49:48;;;;;;;4.60;3.40;;;;;;;14.36;79.02;98986.92;1793218;80;21399;-78
2022/09/11 10:52:18;;;;;;;3.90;3.60;;;;;;;14.36;79.62;98986.08;1793830;80;21093;-79
2022/09/11 10:55:06;;;;;;;4.15;3.85;;;;;;;14.42;80.05;98975.11;1793583;80;21053;-78
2022/09/11 10:57:50;;;;;;;5.15;3.85;;;;;;;14.47;79.62;98969.95;1793861;80;21541;-78
2022/09/11 11:00:24;;;;;;;4.35;4.05;;;;;;;14.55;79.46;98964.17;1794228;80;21061;-77
2022/09/11 11:03:00;;;;;;;4.47;4.17;;;;;;;14.65;79.11;98956.58;1790798;80;21153;-77
2022/09/11 11:05:58;;;;;;;3.90;3.50;;;;;;;14.65;78.21;98961.39;1791428;80;21870;-77
2022/09/11 11:08:58;;;;;;;4.10;3.90;;;;;;;14.65;77.56;98956.09;1793865;80;21038;-76
2022/09/11 11:11:55;;;;;;;4.05;3.75;;;;;;;14.62;77.69;98962.05;1791345;79;21121;-77
2022/09/11 11:14:46;;;;;;;5.78;3.77;;;;;;;14.61;77.38;98963.02;1790860;80;21400;-78
2022/09/11 11:17:53;;;;;;;4.10;3.80;;;;;;;14.56;77.87;98958.40;1787663;80;21944;-77
2022/09/11 11:20:47;;;;;;;4.15;3.85;;;;;;;14.63;77.70;98957.14;1787883;80;21038;-78
2022/09/11 11:23:21;;;;;;;7.53;3.97;;;;;;;14.70;77.35;98951.00;1788255;80;21114;-78
2022/09/11 11:26:18;;;;;;;5.22;4.60;;;;;;;14.81;77.90;98953.38;1788253;80;21034;-78
2022/09/11 11:29:13;;;;;;;5.65;4.80;;;;;;;14.92;77.22;98958.48;1787944;80;20955;-76
2022/09/11 11:32:06;;;;;;;4.40;4.10;;;;;;;15.00;77.05;98949.59;1788685;80;21521;-77
2022/09/11 11:35:03;;;;;;;3.75;3.47;;;;;;;14.97;76.51;98953.27;1788128;80;21069;-77
2022/09/11 11:37:35;;;;;;;4.35;4.00;;;;;;;14.91;75.63;98947.05;1776585;80;21112;-78
2022/09/11 11:40:22;;;;;;;3.77;3.40;;;;;;;14.88;75.60;98943.71;1787758;80;21097;-78
2022/09/11 11:42:54;;;;;;;4.03;3.70;;;;;;;14.89;76.45;98946.75;1788360;80;21037;-78
2022/09/11 11:45:31;;;;;;;3.35;3.15;;;;;;;14.95;76.88;98941.09;1786234;80;21904;-77
2022/09/11 11:48:07;;;;;;;3.98;3.60;;;;;;;15.03;77.04;98944.11;1784840;80;21002;-76
2022/09/11 11:50:48;;;;;;;5.35;4.92;;;;;;;15.08;75.97;98936.73;1788179;80;21081;-77
2022/09/11 11:53:38;;;;;;;5.75;5.25;;;;;;;15.02;76.07;98944.56;1788116;80;21053;-79
2022/09/11 11:56:37;;;;;;;4.33;4.03;;;;;;;14.96;76.59;98950.27;1787845;80;21644;-78
2022/09/11 11:59:30;;;;;;;6.58;5.70;;;;;;;14.95;76.83;98953.84;1788049;80;21097;-78
2022/09/11 12:02:02;;;;;;;3.95;3.65;;;;;;;14.89;76.55;98949.40;1787172;79;21045;-77
2022/09/11 12:04:41;;;;;;;3.77;3.50;;;;;;;14.81;77.22;98954.70;1788312;80;21596;-78